createdAt,value
2019-04-16T00:00:12.072Z,23.73
2019-04-16T00:02:52.138Z,23.77
2019-04-16T00:05:28.516Z,23.74
2019-04-16T00:08:26.685Z,23.74
2019-04-16T00:10:58.000Z,23.72
2019-04-16T00:13:32.824Z,23.71
2019-04-16T00:16:04.905Z,23.71
2019-04-16T00:18:36.832Z,23.70
2019-04-16T00:21:26.438Z,23.71
2019-04-16T00:24:08.948Z,23.67
2019-04-16T00:26:40.738Z,23.69
2019-04-16T00:29:12.719Z,23.71
2019-04-16T00:31:46.453Z,23.69
2019-04-16T00:34:18.445Z,23.69
2019-04-16T00:36:50.452Z,23.69
2019-04-16T00:39:24.923Z,23.73
2019-04-16T00:41:56.148Z,23.69
2019-04-16T00:44:28.333Z,23.69
2019-04-16T00:47:00.712Z,23.71
2019-04-16T00:49:32.681Z,23.72
2019-04-16T00:52:06.697Z,23.72
2019-04-16T00:54:39.293Z,23.71
2019-04-16T00:57:11.977Z,23.70
2019-04-16T00:59:44.148Z,23.70
2019-04-16T01:02:16.111Z,23.69
2019-04-16T01:04:48.140Z,23.67
2019-04-16T01:07:20.477Z,23.65
2019-04-16T01:09:52.216Z,23.63
2019-04-16T01:12:24.384Z,23.61
2019-04-16T01:14:58.938Z,23.63
2019-04-16T01:17:29.646Z,23.63
2019-04-16T01:20:01.433Z,23.63
2019-04-16T01:22:34.093Z,23.62
2019-04-16T01:25:06.955Z,23.63
2019-04-16T01:27:43.241Z,23.61
2019-04-16T01:30:16.861Z,23.60
2019-04-16T01:32:56.609Z,23.61
2019-04-16T01:35:51.404Z,23.58
2019-04-16T01:38:27.630Z,23.60
2019-04-16T01:41:04.669Z,23.55
2019-04-16T01:43:36.721Z,23.55
2019-04-16T01:46:08.781Z,23.56
2019-04-16T01:48:40.732Z,23.58
2019-04-16T01:51:15.357Z,23.57
2019-04-16T01:53:49.512Z,23.61
2019-04-16T01:56:21.485Z,23.63
2019-04-16T01:58:53.461Z,23.58
2019-04-16T02:01:25.441Z,23.56
2019-04-16T02:03:57.565Z,23.56
2019-04-16T02:06:29.888Z,23.55
2019-04-16T02:09:03.157Z,23.50
2019-04-16T02:11:35.703Z,23.52
2019-04-16T02:14:07.605Z,23.51
2019-04-16T02:16:39.353Z,23.52
2019-04-16T02:19:11.141Z,23.50
2019-04-16T02:21:43.153Z,23.51
2019-04-16T02:24:18.567Z,23.48
2019-04-16T02:26:48.553Z,23.50
2019-04-16T02:29:20.209Z,23.48
2019-04-16T02:31:52.539Z,23.52
2019-04-16T02:34:25.025Z,23.51
2019-04-16T02:37:01.116Z,23.48
2019-04-16T02:39:47.246Z,23.52
2019-04-16T02:42:05.173Z,23.54
2019-04-16T02:44:37.691Z,23.54
2019-04-16T02:47:09.679Z,23.51
2019-04-16T02:49:41.656Z,23.51
2019-04-16T02:52:24.458Z,23.53
2019-04-16T02:55:13.947Z,23.51
2019-04-16T02:58:05.629Z,23.49
2019-04-16T03:00:39.190Z,23.54
2019-04-16T03:03:15.523Z,23.50
2019-04-16T03:05:52.287Z,23.47
2019-04-16T03:08:24.316Z,23.51
2019-04-16T03:10:55.976Z,23.46
2019-04-16T03:13:28.151Z,23.46
2019-04-16T03:16:07.987Z,23.45
2019-04-16T03:18:46.912Z,23.44
2019-04-16T03:21:16.251Z,23.46
2019-04-16T03:23:48.613Z,23.45
2019-04-16T03:26:20.412Z,23.46
2019-04-16T03:28:52.650Z,23.46
2019-04-16T03:31:24.823Z,23.45
2019-04-16T03:33:56.627Z,23.46
2019-04-16T03:36:29.594Z,23.49
2019-04-16T03:39:02.252Z,23.50
2019-04-16T03:41:34.382Z,23.51
2019-04-16T03:44:07.362Z,23.54
2019-04-16T03:46:40.197Z,23.55
2019-04-16T03:49:12.390Z,23.58
2019-04-16T03:51:44.483Z,23.58
2019-04-16T03:54:18.884Z,23.62
2019-04-16T03:56:51.628Z,23.65
2019-04-16T03:59:23.759Z,23.66
2019-04-16T04:01:55.483Z,23.67
2019-04-16T04:04:29.247Z,23.69
2019-04-16T04:07:01.151Z,23.71
2019-04-16T04:09:33.549Z,23.74
2019-04-16T04:12:05.808Z,23.75
2019-04-16T04:14:38.089Z,23.78
2019-04-16T04:17:09.981Z,23.77
2019-04-16T04:19:46.239Z,23.78
2019-04-16T04:22:18.920Z,23.78
2019-04-16T04:24:50.720Z,23.79
2019-04-16T04:27:22.924Z,23.79
2019-04-16T04:29:57.377Z,23.78
2019-04-16T04:32:35.085Z,23.79
2019-04-16T04:35:06.153Z,23.80
2019-04-16T04:37:38.179Z,23.75
2019-04-16T04:40:12.956Z,23.77
2019-04-16T04:42:47.575Z,23.79
2019-04-16T04:45:19.190Z,23.78
2019-04-16T04:47:51.703Z,23.80
2019-04-16T04:50:26.207Z,23.81
2019-04-16T04:52:58.183Z,23.79
2019-04-16T04:55:30.669Z,23.76
2019-04-16T04:58:03.541Z,23.73
2019-04-16T05:00:37.493Z,23.66
2019-04-16T05:03:15.859Z,23.64
2019-04-16T05:05:49.717Z,23.60
2019-04-16T05:08:22.026Z,23.61
2019-04-16T05:10:59.789Z,23.60
2019-04-16T05:13:27.991Z,23.65
2019-04-16T05:16:01.955Z,23.63
2019-04-16T05:18:33.622Z,23.60
2019-04-16T05:21:05.472Z,23.59
2019-04-16T05:23:37.817Z,23.60
2019-04-16T05:26:10.559Z,23.64
2019-04-16T05:28:45.526Z,23.66
2019-04-16T05:31:16.562Z,23.63
2019-04-16T05:33:48.821Z,23.68
2019-04-16T05:36:21.787Z,23.73
2019-04-16T05:38:55.743Z,23.75
2019-04-16T05:41:27.784Z,23.76
2019-04-16T05:44:01.786Z,23.75
2019-04-16T05:46:32.834Z,23.75
2019-04-16T05:49:04.924Z,23.74
2019-04-16T05:51:37.452Z,23.78
2019-04-16T05:54:13.675Z,23.80
2019-04-16T05:56:46.933Z,23.84
2019-04-16T05:59:18.738Z,23.85
2019-04-16T06:01:57.246Z,23.85
2019-04-16T06:04:28.009Z,23.84
2019-04-16T06:07:02.922Z,23.86
2019-04-16T06:09:33.640Z,23.84
2019-04-16T06:12:08.369Z,23.83
2019-04-16T06:14:41.145Z,23.83
2019-04-16T06:17:25.423Z,23.82
2019-04-16T06:20:10.483Z,23.83
2019-04-16T06:22:49.671Z,23.86
2019-04-16T06:25:35.252Z,23.80
2019-04-16T06:28:26.748Z,23.82
2019-04-16T06:30:59.607Z,23.82
2019-04-16T06:33:35.949Z,23.81
2019-04-16T06:36:09.418Z,23.79
2019-04-16T06:39:01.183Z,23.83
2019-04-16T06:41:47.840Z,23.82
2019-04-16T06:44:16.599Z,23.84
2019-04-16T06:47:11.777Z,23.83
2019-04-16T06:49:48.241Z,23.85
2019-04-16T06:52:36.771Z,23.84
2019-04-16T06:55:13.609Z,23.82
2019-04-16T06:58:04.459Z,23.85
2019-04-16T07:00:54.440Z,23.77
2019-04-16T07:03:33.603Z,23.77
2019-04-16T07:06:06.821Z,23.88
2019-04-16T07:08:50.057Z,23.87
2019-04-16T07:11:27.074Z,23.92
2019-04-16T07:14:00.540Z,23.86
2019-04-16T07:16:32.200Z,23.88
2019-04-16T07:19:03.994Z,23.88
2019-04-16T07:21:37.191Z,23.90
2019-04-16T07:24:23.787Z,23.85
2019-04-16T07:26:56.933Z,23.87
2019-04-16T07:29:33.675Z,23.88
2019-04-16T07:32:13.471Z,23.88
2019-04-16T07:34:55.812Z,23.92
2019-04-16T07:37:42.926Z,23.91
2019-04-16T07:40:19.632Z,23.91
2019-04-16T07:42:59.479Z,23.92
2019-04-16T07:45:32.726Z,23.94
2019-04-16T07:48:07.063Z,23.90
2019-04-16T07:50:46.693Z,23.91
2019-04-16T07:53:22.854Z,23.89
2019-04-16T07:55:56.466Z,23.90
2019-04-16T07:58:28.263Z,23.88
2019-04-16T08:01:00.299Z,23.90
2019-04-16T08:03:32.325Z,23.88
2019-04-16T08:06:04.478Z,23.88
2019-04-16T08:08:36.973Z,23.88
2019-04-16T08:11:08.760Z,23.94
2019-04-16T08:13:41.782Z,23.96
2019-04-16T08:16:13.680Z,23.99
2019-04-16T08:18:49.970Z,23.98
2019-04-16T08:21:22.650Z,23.96
2019-04-16T08:24:09.206Z,23.95
2019-04-16T08:26:41.638Z,23.98
2019-04-16T08:29:16.329Z,24.00
2019-04-16T08:31:49.290Z,24.04
2019-04-16T08:34:21.777Z,24.11
2019-04-16T08:36:53.778Z,24.06
2019-04-16T08:39:25.447Z,24.02
2019-04-16T08:41:57.475Z,24.06
2019-04-16T08:44:29.261Z,24.09
2019-04-16T08:47:01.031Z,24.06
2019-04-16T08:49:32.720Z,24.12
2019-04-16T08:52:09.881Z,24.14
2019-04-16T08:54:37.736Z,24.15
2019-04-16T08:57:10.006Z,24.11
2019-04-16T08:59:42.636Z,24.09
2019-04-16T09:02:15.571Z,24.07
2019-04-16T09:04:47.533Z,24.08
2019-04-16T09:07:37.902Z,24.05
2019-04-16T09:10:18.478Z,24.08
2019-04-16T09:13:02.065Z,24.13
2019-04-16T09:15:27.611Z,24.13
2019-04-16T09:18:12.645Z,24.13
2019-04-16T09:20:44.915Z,24.15
2019-04-16T09:23:17.048Z,24.15
2019-04-16T09:26:14.015Z,24.16
2019-04-16T09:28:53.039Z,24.13
2019-04-16T09:31:38.197Z,24.18
2019-04-16T09:34:11.718Z,24.18
2019-04-16T09:36:47.860Z,24.18
2019-04-16T09:39:27.237Z,24.20
2019-04-16T09:41:58.927Z,24.20
2019-04-16T09:44:34.987Z,24.19
2019-04-16T09:47:05.516Z,24.20
2019-04-16T09:49:39.097Z,24.22
2019-04-16T09:52:22.986Z,24.23
2019-04-16T09:55:01.058Z,24.24
2019-04-16T09:57:34.870Z,24.24
2019-04-16T10:00:11.821Z,24.24
2019-04-16T10:02:44.002Z,24.26
2019-04-16T10:05:15.775Z,24.30
2019-04-16T10:07:47.883Z,24.29
2019-04-16T10:10:19.904Z,24.21
2019-04-16T10:12:52.045Z,24.23
2019-04-16T10:15:24.087Z,24.21
2019-04-16T10:17:58.553Z,24.22
2019-04-16T10:20:29.969Z,24.21
2019-04-16T10:23:03.793Z,24.26
2019-04-16T10:25:35.712Z,24.26
2019-04-16T10:28:15.052Z,24.31
2019-04-16T10:30:48.502Z,24.34
2019-04-16T10:33:20.379Z,24.38
2019-04-16T10:35:52.730Z,24.41
2019-04-16T10:38:28.844Z,24.41
2019-04-16T10:41:04.801Z,24.41
2019-04-16T10:43:52.923Z,24.43
2019-04-16T10:46:35.523Z,24.44
2019-04-16T10:49:15.137Z,24.45
2019-04-16T10:52:06.569Z,24.47
2019-04-16T10:54:43.451Z,24.46
2019-04-16T10:57:28.760Z,24.48
2019-04-16T11:00:02.260Z,24.48
2019-04-16T11:02:35.576Z,24.48
2019-04-16T11:05:11.314Z,24.48
2019-04-16T11:07:44.810Z,24.49
2019-04-16T11:10:17.224Z,24.50
2019-04-16T11:12:49.259Z,24.50
2019-04-16T11:15:22.884Z,24.50
2019-04-16T11:17:54.668Z,24.52
2019-04-16T11:20:27.097Z,24.51
2019-04-16T11:23:01.776Z,24.52
2019-04-16T11:25:34.437Z,24.53
2019-04-16T11:28:06.436Z,24.55
2019-04-16T11:30:42.720Z,24.56
2019-04-16T11:33:14.773Z,24.58
2019-04-16T11:35:46.997Z,24.18
2019-04-16T11:38:20.521Z,23.79
2019-04-16T11:40:52.202Z,23.64
2019-04-16T11:43:24.259Z,23.54
2019-04-16T11:45:57.675Z,23.53
2019-04-16T11:48:29.616Z,23.34
2019-04-16T11:51:01.587Z,23.26
2019-04-16T11:53:33.555Z,23.24
2019-04-16T11:56:05.533Z,23.16
2019-04-16T11:58:42.030Z,23.18
2019-04-16T12:01:25.967Z,23.08
2019-04-16T12:03:59.607Z,23.00
2019-04-16T12:06:36.079Z,22.99
2019-04-16T12:09:26.384Z,23.07
2019-04-16T12:12:08.656Z,23.08
2019-04-16T12:14:48.039Z,22.90
2019-04-16T12:17:24.151Z,23.02
2019-04-16T12:20:14.142Z,23.27
2019-04-16T12:22:47.544Z,23.46
2019-04-16T12:25:37.916Z,23.60
2019-04-16T12:28:29.499Z,23.70
2019-04-16T12:31:05.913Z,23.80
2019-04-16T12:33:39.458Z,23.88
2019-04-16T12:36:30.668Z,23.96
2019-04-16T12:39:03.885Z,24.01
2019-04-16T12:41:40.924Z,24.08
2019-04-16T12:44:23.965Z,24.11
2019-04-16T12:47:01.454Z,24.14
2019-04-16T12:49:44.230Z,24.17
2019-04-16T12:52:17.824Z,24.20
2019-04-16T12:55:03.456Z,24.23
2019-04-16T12:57:36.897Z,24.25
2019-04-16T13:00:13.122Z,24.28
2019-04-16T13:02:49.148Z,24.30
2019-04-16T13:05:31.346Z,24.32
2019-04-16T13:08:19.598Z,24.35
2019-04-16T13:11:09.202Z,24.36
2019-04-16T13:13:43.051Z,24.39
2019-04-16T13:16:19.476Z,24.41
2019-04-16T13:19:07.982Z,24.41
2019-04-16T13:21:41.674Z,24.43
2019-04-16T13:24:23.729Z,24.44
2019-04-16T13:27:00.215Z,24.45
2019-04-16T13:29:33.826Z,24.49
2019-04-16T13:32:11.576Z,24.50
2019-04-16T13:34:46.204Z,24.52
2019-04-16T13:37:20.503Z,24.52
2019-04-16T13:39:53.778Z,24.51
2019-04-16T13:42:25.711Z,24.53
2019-04-16T13:45:25.677Z,24.53
2019-04-16T13:48:14.492Z,24.54
2019-04-16T13:50:47.071Z,24.54
2019-04-16T13:53:28.733Z,24.56
2019-04-16T13:56:21.325Z,24.56
2019-04-16T13:58:59.218Z,24.57
2019-04-16T14:01:48.799Z,24.56
2019-04-16T14:04:20.297Z,24.57
2019-04-16T14:06:54.566Z,24.57
2019-04-16T14:09:28.058Z,24.56
2019-04-16T14:12:02.381Z,24.58
2019-04-16T14:14:37.033Z,24.58
2019-04-16T14:17:10.978Z,24.58
2019-04-16T14:19:45.590Z,24.59
2019-04-16T14:22:21.665Z,24.59
2019-04-16T14:24:51.872Z,24.59
2019-04-16T14:27:27.782Z,24.59
2019-04-16T14:30:00.199Z,24.61
2019-04-16T14:32:32.388Z,24.61
2019-04-16T14:35:07.494Z,24.61
2019-04-16T14:37:39.923Z,24.60
2019-04-16T14:40:13.538Z,24.62
2019-04-16T14:42:45.558Z,24.63
2019-04-16T14:45:24.870Z,24.62
2019-04-16T14:47:56.788Z,24.63
2019-04-16T14:50:28.832Z,24.64
2019-04-16T14:53:02.223Z,24.64
2019-04-16T14:55:59.115Z,24.65
2019-04-16T14:58:35.540Z,24.65
2019-04-16T15:01:11.917Z,24.65
2019-04-16T15:03:51.122Z,24.67
2019-04-16T15:06:41.207Z,24.66
2019-04-16T15:09:27.009Z,24.65
2019-04-16T15:12:16.951Z,24.66
2019-04-16T15:15:00.174Z,24.66
2019-04-16T15:17:36.711Z,24.67
2019-04-16T15:20:25.398Z,24.67
2019-04-16T15:23:05.491Z,24.67
2019-04-16T15:25:51.226Z,24.68
2019-04-16T15:28:27.368Z,24.67
2019-04-16T15:31:02.543Z,24.66
2019-04-16T15:33:39.014Z,24.67
2019-04-16T15:36:19.422Z,24.67
2019-04-16T15:39:03.219Z,24.69
2019-04-16T15:41:45.382Z,24.69
2019-04-16T15:44:22.557Z,24.71
2019-04-16T15:47:02.954Z,24.71
2019-04-16T15:49:37.020Z,24.71
2019-04-16T15:52:19.987Z,24.70
2019-04-16T15:54:53.326Z,24.71
2019-04-16T15:57:32.134Z,24.73
2019-04-16T16:00:05.900Z,24.72
2019-04-16T16:02:51.436Z,24.73
2019-04-16T16:05:34.040Z,24.73
2019-04-16T16:08:15.880Z,24.72
2019-04-16T16:10:56.503Z,24.74
2019-04-16T16:13:28.861Z,24.74
2019-04-16T16:16:00.817Z,24.74
2019-04-16T16:18:35.885Z,24.75
2019-04-16T16:21:06.608Z,24.75
2019-04-16T16:23:39.856Z,24.75
2019-04-16T16:26:12.895Z,24.76
2019-04-16T16:28:44.949Z,24.75
2019-04-16T16:31:18.252Z,24.76
2019-04-16T16:33:50.350Z,24.78
2019-04-16T16:36:25.524Z,24.78
2019-04-16T16:38:59.645Z,24.78
2019-04-16T16:41:31.830Z,24.77
2019-04-16T16:44:04.783Z,24.77
2019-04-16T16:46:57.157Z,24.78
2019-04-16T16:49:31.757Z,24.78
2019-04-16T16:52:11.845Z,24.80
2019-04-16T16:54:45.745Z,24.78
2019-04-16T16:57:19.151Z,24.79
2019-04-16T17:00:10.978Z,24.79
2019-04-16T17:02:50.824Z,24.79
2019-04-16T17:05:24.136Z,24.80
2019-04-16T17:07:55.976Z,24.78
2019-04-16T17:10:27.990Z,24.80
2019-04-16T17:13:00.477Z,24.79
2019-04-16T17:15:32.558Z,24.80
2019-04-16T17:18:04.490Z,24.80
2019-04-16T17:20:38.415Z,24.80
2019-04-16T17:23:09.829Z,24.81
2019-04-16T17:25:41.630Z,24.84
2019-04-16T17:28:13.418Z,24.83
2019-04-16T17:30:46.780Z,24.82
2019-04-16T17:33:18.499Z,24.79
2019-04-16T17:35:53.658Z,24.76
2019-04-16T17:38:25.669Z,24.75
2019-04-16T17:41:01.806Z,24.73
2019-04-16T17:43:59.795Z,24.75
2019-04-16T17:46:25.208Z,24.75
2019-04-16T17:48:58.550Z,24.76
2019-04-16T17:51:46.491Z,24.75
2019-04-16T17:54:19.944Z,24.76
2019-04-16T17:57:09.508Z,24.76
2019-04-16T17:59:48.666Z,24.76
2019-04-16T18:02:27.720Z,24.77
2019-04-16T18:05:00.129Z,24.78
2019-04-16T18:07:42.494Z,24.78
2019-04-16T18:10:18.677Z,24.78
2019-04-16T18:13:00.652Z,24.81
2019-04-16T18:15:51.705Z,24.82
2019-04-16T18:18:24.333Z,24.82
2019-04-16T18:21:00.375Z,24.83
2019-04-16T18:23:42.202Z,24.82
2019-04-16T18:26:31.384Z,24.83
2019-04-16T18:29:10.995Z,24.82
2019-04-16T18:31:56.339Z,24.81
2019-04-16T18:34:35.594Z,24.80
2019-04-16T18:37:17.777Z,24.80
2019-04-16T18:39:51.804Z,24.80
2019-04-16T18:42:42.577Z,24.79
2019-04-16T18:45:19.112Z,24.78
2019-04-16T18:48:02.754Z,24.78
2019-04-16T18:50:28.218Z,24.78
2019-04-16T18:53:00.797Z,24.76
2019-04-16T18:55:34.667Z,24.74
2019-04-16T18:58:06.316Z,24.74
2019-04-16T19:01:16.223Z,24.75
2019-04-16T19:03:49.925Z,24.74
2019-04-16T19:06:21.845Z,24.74
2019-04-16T19:08:54.455Z,24.74
2019-04-16T19:11:27.083Z,24.73
2019-04-16T19:13:58.637Z,24.71
2019-04-16T19:16:30.614Z,24.70
2019-04-16T19:19:02.580Z,24.71
2019-04-16T19:21:34.214Z,24.69
2019-04-16T19:24:08.378Z,24.69
2019-04-16T19:26:39.941Z,24.69
2019-04-16T19:29:14.794Z,24.70
2019-04-16T19:31:47.143Z,24.67
2019-04-16T19:34:20.802Z,24.68
2019-04-16T19:36:55.989Z,24.67
2019-04-16T19:39:27.209Z,24.68
2019-04-16T19:41:59.186Z,24.67
2019-04-16T19:44:39.661Z,24.66
2019-04-16T19:47:07.547Z,24.67
2019-04-16T19:49:39.363Z,24.68
2019-04-16T19:52:14.273Z,24.69
2019-04-16T19:54:46.937Z,24.67
2019-04-16T19:57:18.573Z,24.68
2019-04-16T19:59:52.227Z,24.67
2019-04-16T20:02:24.218Z,24.68
2019-04-16T20:04:56.076Z,24.67
2019-04-16T20:07:32.879Z,24.67
2019-04-16T20:10:04.933Z,24.66
2019-04-16T20:12:37.475Z,24.66
2019-04-16T20:15:12.222Z,24.64
2019-04-16T20:17:43.931Z,24.65
2019-04-16T20:20:15.807Z,24.62
2019-04-16T20:22:47.808Z,24.59
2019-04-16T20:25:19.609Z,24.56
2019-04-16T20:27:51.577Z,24.58
2019-04-16T20:30:25.334Z,24.58
2019-04-16T20:33:02.874Z,24.58
2019-04-16T20:35:35.046Z,24.57
2019-04-16T20:38:07.007Z,24.58
2019-04-16T20:40:41.258Z,24.58
2019-04-16T20:43:14.875Z,24.56
2019-04-16T20:45:49.455Z,24.56
2019-04-16T20:48:20.763Z,24.54
2019-04-16T20:50:53.662Z,24.50
2019-04-16T20:53:26.156Z,24.50
2019-04-16T20:56:00.197Z,24.53
2019-04-16T20:58:32.394Z,24.53
2019-04-16T21:01:04.495Z,24.53
2019-04-16T21:03:36.811Z,24.50
2019-04-16T21:06:13.499Z,24.49
2019-04-16T21:08:45.846Z,24.48
2019-04-16T21:11:19.282Z,24.50
2019-04-16T21:13:51.218Z,24.48
2019-04-16T21:16:23.351Z,24.45
2019-04-16T21:18:55.470Z,24.47
2019-04-16T21:21:30.716Z,24.47
2019-04-16T21:24:09.111Z,24.46
2019-04-16T21:26:41.417Z,24.42
2019-04-16T21:29:21.689Z,24.42
2019-04-16T21:31:58.659Z,24.42
2019-04-16T21:34:44.061Z,24.44
2019-04-16T21:37:29.899Z,24.43
2019-04-16T21:40:06.310Z,24.41
2019-04-16T21:42:38.408Z,24.41
2019-04-16T21:45:10.642Z,24.41
2019-04-16T21:47:44.140Z,24.40
2019-04-16T21:50:17.030Z,24.40
2019-04-16T21:52:49.410Z,24.35
2019-04-16T21:55:21.445Z,24.38
2019-04-16T21:57:53.228Z,24.34
2019-04-16T22:00:38.646Z,24.32
2019-04-16T22:03:12.105Z,24.31
2019-04-16T22:05:48.089Z,24.33
2019-04-16T22:08:19.209Z,24.34
2019-04-16T22:10:50.999Z,24.34
2019-04-16T22:13:24.431Z,24.39
2019-04-16T22:15:58.649Z,24.42
2019-04-16T22:18:31.333Z,24.42
2019-04-16T22:21:03.243Z,24.41
2019-04-16T22:23:36.093Z,24.38
2019-04-16T22:26:10.790Z,24.39
2019-04-16T22:28:44.400Z,24.34
2019-04-16T22:31:15.347Z,24.38
2019-04-16T22:33:47.539Z,24.37
2019-04-16T22:36:19.722Z,24.37
2019-04-16T22:38:53.373Z,24.37
2019-04-16T22:41:32.808Z,24.37
2019-04-16T22:44:22.013Z,24.34
2019-04-16T22:47:08.035Z,24.35
2019-04-16T22:49:39.967Z,24.36
2019-04-16T22:52:13.123Z,24.34
2019-04-16T22:54:45.915Z,24.35
2019-04-16T22:57:18.854Z,24.35
2019-04-16T22:59:50.615Z,24.35
2019-04-16T23:02:27.955Z,24.38
2019-04-16T23:05:00.224Z,24.38
2019-04-16T23:07:32.798Z,24.38
2019-04-16T23:10:06.373Z,24.32
2019-04-16T23:12:38.307Z,24.29
2019-04-16T23:15:11.994Z,24.33
2019-04-16T23:17:46.191Z,24.31
2019-04-16T23:20:29.226Z,24.32
2019-04-16T23:22:51.603Z,24.32
2019-04-16T23:25:27.012Z,24.28
2019-04-16T23:27:57.716Z,24.29
2019-04-16T23:30:30.093Z,24.28
2019-04-16T23:33:02.291Z,24.29
2019-04-16T23:35:34.333Z,24.26
2019-04-16T23:38:06.109Z,24.25
2019-04-16T23:40:40.808Z,24.26
2019-04-16T23:43:18.795Z,24.24
2019-04-16T23:46:05.436Z,24.23
2019-04-16T23:48:39.456Z,24.23
2019-04-16T23:51:16.034Z,24.21
2019-04-16T23:53:58.883Z,24.23
2019-04-16T23:56:44.603Z,24.23
2019-04-16T23:59:21.209Z,24.20
